sensor_id;sensor_type;location;lat;lon;timestamp;P1;durP1;ratioP1;P2;durP2;ratioP2
8964;SDS011;4517;49.020;12.066;2023-02-04T00:01:50;14.53;;;7.43;;
8964;SDS011;4517;49.020;12.066;2023-02-04T00:04:16;13.13;;;7.20;;
8964;SDS011;4517;49.020;12.066;2023-02-04T00:06:42;26.67;;;8.03;;
8964;SDS011;4517;49.020;12.066;2023-02-04T00:09:07;12.83;;;7.87;;
8964;SDS011;4517;49.020;12.066;2023-02-04T00:11:33;10.90;;;6.97;;
8964;SDS011;4517;49.020;12.066;2023-02-04T00:13:58;15.63;;;8.80;;
8964;SDS011;4517;49.020;12.066;2023-02-04T00:16:24;13.43;;;7.60;;
8964;SDS011;4517;49.020;12.066;2023-02-04T00:18:50;8.10;;;7.27;;
8964;SDS011;4517;49.020;12.066;2023-02-04T00:21:15;13.47;;;7.70;;
8964;SDS011;4517;49.020;12.066;2023-02-04T00:23:42;12.43;;;7.97;;
8964;SDS011;4517;49.020;12.066;2023-02-04T00:26:07;10.13;;;7.73;;
8964;SDS011;4517;49.020;12.066;2023-02-04T00:28:34;8.30;;;7.50;;
8964;SDS011;4517;49.020;12.066;2023-02-04T00:31:00;9.30;;;7.60;;
8964;SDS011;4517;49.020;12.066;2023-02-04T00:33:25;8.73;;;7.80;;
8964;SDS011;4517;49.020;12.066;2023-02-04T00:35:51;11.73;;;8.57;;
8964;SDS011;4517;49.020;12.066;2023-02-04T00:38:17;17.23;;;7.90;;
8964;SDS011;4517;49.020;12.066;2023-02-04T00:40:42;13.17;;;7.30;;
8964;SDS011;4517;49.020;12.066;2023-02-04T00:43:09;11.20;;;7.73;;
8964;SDS011;4517;49.020;12.066;2023-02-04T00:45:34;18.27;;;8.07;;
8964;SDS011;4517;49.020;12.066;2023-02-04T00:48:00;16.67;;;8.10;;
8964;SDS011;4517;49.020;12.066;2023-02-04T00:50:25;13.93;;;7.80;;
8964;SDS011;4517;49.020;12.066;2023-02-04T00:52:51;8.33;;;7.17;;
8964;SDS011;4517;49.020;12.066;2023-02-04T00:55:17;21.30;;;7.90;;
8964;SDS011;4517;49.020;12.066;2023-02-04T00:57:47;9.40;;;7.63;;
8964;SDS011;4517;49.020;12.066;2023-02-04T01:00:13;11.03;;;7.03;;
8964;SDS011;4517;49.020;12.066;2023-02-04T01:02:39;9.80;;;7.60;;
8964;SDS011;4517;49.020;12.066;2023-02-04T01:05:06;16.97;;;7.60;;
8964;SDS011;4517;49.020;12.066;2023-02-04T01:07:35;11.43;;;7.27;;
8964;SDS011;4517;49.020;12.066;2023-02-04T01:10:01;8.50;;;7.47;;
8964;SDS011;4517;49.020;12.066;2023-02-04T01:12:27;8.30;;;7.57;;
8964;SDS011;4517;49.020;12.066;2023-02-04T01:14:53;9.90;;;6.83;;
8964;SDS011;4517;49.020;12.066;2023-02-04T01:17:19;8.20;;;7.57;;
8964;SDS011;4517;49.020;12.066;2023-02-04T01:19:45;16.93;;;7.67;;
8964;SDS011;4517;49.020;12.066;2023-02-04T01:22:11;14.43;;;8.00;;
8964;SDS011;4517;49.020;12.066;2023-02-04T01:24:38;11.40;;;7.60;;
8964;SDS011;4517;49.020;12.066;2023-02-04T01:27:04;9.90;;;7.20;;
8964;SDS011;4517;49.020;12.066;2023-02-04T01:29:30;8.67;;;7.87;;
8964;SDS011;4517;49.020;12.066;2023-02-04T01:31:55;13.70;;;8.30;;
8964;SDS011;4517;49.020;12.066;2023-02-04T01:34:21;11.90;;;7.60;;
8964;SDS011;4517;49.020;12.066;2023-02-04T01:36:47;8.20;;;6.90;;
8964;SDS011;4517;49.020;12.066;2023-02-04T01:39:14;21.27;;;7.87;;
8964;SDS011;4517;49.020;12.066;2023-02-04T01:41:40;8.27;;;7.57;;
8964;SDS011;4517;49.020;12.066;2023-02-04T01:44:05;14.13;;;7.30;;
8964;SDS011;4517;49.020;12.066;2023-02-04T01:46:31;14.97;;;7.83;;
8964;SDS011;4517;49.020;12.066;2023-02-04T01:48:59;11.23;;;7.70;;
8964;SDS011;4517;49.020;12.066;2023-02-04T01:51:26;9.40;;;8.10;;
8964;SDS011;4517;49.020;12.066;2023-02-04T01:53:54;13.60;;;8.30;;
8964;SDS011;4517;49.020;12.066;2023-02-04T01:56:21;10.57;;;7.70;;
8964;SDS011;4517;49.020;12.066;2023-02-04T01:58:50;11.77;;;8.13;;
8964;SDS011;4517;49.020;12.066;2023-02-04T02:04:09;9.73;;;7.80;;
8964;SDS011;4517;49.020;12.066;2023-02-04T02:06:38;14.90;;;7.37;;
8964;SDS011;4517;49.020;12.066;2023-02-04T02:09:06;17.90;;;8.10;;
8964;SDS011;4517;49.020;12.066;2023-02-04T02:11:31;13.00;;;8.17;;
8964;SDS011;4517;49.020;12.066;2023-02-04T02:13:58;8.57;;;7.17;;
8964;SDS011;4517;49.020;12.066;2023-02-04T02:16:24;12.77;;;6.90;;
8964;SDS011;4517;49.020;12.066;2023-02-04T02:18:50;23.73;;;8.93;;
8964;SDS011;4517;49.020;12.066;2023-02-04T02:21:19;11.50;;;8.07;;
8964;SDS011;4517;49.020;12.066;2023-02-04T02:23:51;10.73;;;7.70;;
8964;SDS011;4517;49.020;12.066;2023-02-04T02:26:18;14.23;;;7.60;;
8964;SDS011;4517;49.020;12.066;2023-02-04T02:28:45;8.00;;;7.27;;
8964;SDS011;4517;49.020;12.066;2023-02-04T02:31:13;10.03;;;6.80;;
8964;SDS011;4517;49.020;12.066;2023-02-04T02:33:40;15.30;;;7.20;;
8964;SDS011;4517;49.020;12.066;2023-02-04T02:36:06;7.30;;;6.80;;
8964;SDS011;4517;49.020;12.066;2023-02-04T02:38:32;15.70;;;7.73;;
8964;SDS011;4517;49.020;12.066;2023-02-04T02:41:00;13.43;;;7.00;;
8964;SDS011;4517;49.020;12.066;2023-02-04T02:43:26;18.70;;;8.73;;
8964;SDS011;4517;49.020;12.066;2023-02-04T02:45:53;9.23;;;7.37;;
8964;SDS011;4517;49.020;12.066;2023-02-04T02:48:21;10.70;;;7.53;;
8964;SDS011;4517;49.020;12.066;2023-02-04T02:50:47;9.40;;;7.50;;
8964;SDS011;4517;49.020;12.066;2023-02-04T02:53:17;9.20;;;8.10;;
8964;SDS011;4517;49.020;12.066;2023-02-04T02:55:44;12.70;;;7.87;;
8964;SDS011;4517;49.020;12.066;2023-02-04T02:58:24;16.03;;;7.17;;
8964;SDS011;4517;49.020;12.066;2023-02-04T03:00:53;12.10;;;8.00;;
8964;SDS011;4517;49.020;12.066;2023-02-04T03:03:21;14.80;;;8.53;;
8964;SDS011;4517;49.020;12.066;2023-02-04T03:05:51;13.33;;;7.03;;
8964;SDS011;4517;49.020;12.066;2023-02-04T03:08:24;16.87;;;7.40;;
8964;SDS011;4517;49.020;12.066;2023-02-04T03:10:50;10.33;;;7.87;;
8964;SDS011;4517;49.020;12.066;2023-02-04T03:13:16;9.70;;;8.23;;
8964;SDS011;4517;49.020;12.066;2023-02-04T03:15:43;9.83;;;8.77;;
8964;SDS011;4517;49.020;12.066;2023-02-04T03:18:12;14.67;;;8.10;;
8964;SDS011;4517;49.020;12.066;2023-02-04T03:20:43;21.87;;;8.63;;
8964;SDS011;4517;49.020;12.066;2023-02-04T03:23:10;14.83;;;7.57;;
8964;SDS011;4517;49.020;12.066;2023-02-04T03:25:36;9.90;;;8.10;;
8964;SDS011;4517;49.020;12.066;2023-02-04T03:28:04;11.23;;;7.93;;
8964;SDS011;4517;49.020;12.066;2023-02-04T03:30:30;7.93;;;7.23;;
8964;SDS011;4517;49.020;12.066;2023-02-04T03:32:56;12.03;;;7.87;;
8964;SDS011;4517;49.020;12.066;2023-02-04T03:35:33;9.77;;;6.90;;
8964;SDS011;4517;49.020;12.066;2023-02-04T03:37:58;8.97;;;7.27;;
8964;SDS011;4517;49.020;12.066;2023-02-04T03:40:24;13.97;;;7.60;;
8964;SDS011;4517;49.020;12.066;2023-02-04T03:42:49;9.37;;;7.37;;
8964;SDS011;4517;49.020;12.066;2023-02-04T03:45:21;10.93;;;7.93;;
8964;SDS011;4517;49.020;12.066;2023-02-04T03:47:47;10.23;;;6.63;;
8964;SDS011;4517;49.020;12.066;2023-02-04T03:50:13;9.57;;;7.00;;
8964;SDS011;4517;49.020;12.066;2023-02-04T03:52:39;9.10;;;6.60;;
8964;SDS011;4517;49.020;12.066;2023-02-04T03:55:04;11.17;;;7.33;;
8964;SDS011;4517;49.020;12.066;2023-02-04T03:57:30;13.83;;;7.57;;
8964;SDS011;4517;49.020;12.066;2023-02-04T03:59:56;12.13;;;8.00;;
8964;SDS011;4517;49.020;12.066;2023-02-04T04:02:21;12.90;;;7.33;;
8964;SDS011;4517;49.020;12.066;2023-02-04T04:04:47;13.90;;;6.90;;
8964;SDS011;4517;49.020;12.066;2023-02-04T04:07:12;11.40;;;7.50;;
8964;SDS011;4517;49.020;12.066;2023-02-04T04:09:38;10.83;;;7.17;;
8964;SDS011;4517;49.020;12.066;2023-02-04T04:12:03;8.80;;;6.50;;
8964;SDS011;4517;49.020;12.066;2023-02-04T04:14:29;17.30;;;7.20;;
8964;SDS011;4517;49.020;12.066;2023-02-04T04:16:54;10.27;;;7.13;;
8964;SDS011;4517;49.020;12.066;2023-02-04T04:19:20;14.87;;;8.40;;
8964;SDS011;4517;49.020;12.066;2023-02-04T04:21:45;12.33;;;7.63;;
8964;SDS011;4517;49.020;12.066;2023-02-04T04:24:11;18.27;;;8.20;;
8964;SDS011;4517;49.020;12.066;2023-02-04T04:26:36;13.50;;;8.07;;
8964;SDS011;4517;49.020;12.066;2023-02-04T04:29:02;15.20;;;7.37;;
8964;SDS011;4517;49.020;12.066;2023-02-04T04:31:28;9.03;;;7.20;;
8964;SDS011;4517;49.020;12.066;2023-02-04T04:33:53;8.83;;;7.57;;
8964;SDS011;4517;49.020;12.066;2023-02-04T04:36:19;10.60;;;7.30;;
8964;SDS011;4517;49.020;12.066;2023-02-04T04:38:44;8.83;;;7.30;;
8964;SDS011;4517;49.020;12.066;2023-02-04T04:41:10;17.40;;;7.63;;
8964;SDS011;4517;49.020;12.066;2023-02-04T04:43:35;8.30;;;7.40;;
8964;SDS011;4517;49.020;12.066;2023-02-04T04:46:01;12.07;;;7.80;;
8964;SDS011;4517;49.020;12.066;2023-02-04T04:48:26;14.30;;;8.23;;
8964;SDS011;4517;49.020;12.066;2023-02-04T04:50:52;14.60;;;8.20;;
8964;SDS011;4517;49.020;12.066;2023-02-04T04:53:17;10.00;;;7.43;;
8964;SDS011;4517;49.020;12.066;2023-02-04T04:55:43;15.73;;;7.57;;
8964;SDS011;4517;49.020;12.066;2023-02-04T04:58:08;10.53;;;7.30;;
8964;SDS011;4517;49.020;12.066;2023-02-04T05:00:34;17.43;;;7.87;;
8964;SDS011;4517;49.020;12.066;2023-02-04T05:02:59;8.13;;;7.30;;
8964;SDS011;4517;49.020;12.066;2023-02-04T05:05:25;9.57;;;6.70;;
8964;SDS011;4517;49.020;12.066;2023-02-04T05:07:51;13.93;;;8.33;;
8964;SDS011;4517;49.020;12.066;2023-02-04T05:10:17;10.43;;;7.07;;
8964;SDS011;4517;49.020;12.066;2023-02-04T05:12:43;18.03;;;6.73;;
8964;SDS011;4517;49.020;12.066;2023-02-04T05:15:09;12.43;;;7.13;;
8964;SDS011;4517;49.020;12.066;2023-02-04T05:17:34;8.53;;;7.23;;
8964;SDS011;4517;49.020;12.066;2023-02-04T05:20:00;11.00;;;7.40;;
8964;SDS011;4517;49.020;12.066;2023-02-04T05:22:25;10.10;;;7.53;;
8964;SDS011;4517;49.020;12.066;2023-02-04T05:24:51;6.80;;;6.20;;
8964;SDS011;4517;49.020;12.066;2023-02-04T05:27:16;24.00;;;7.67;;
8964;SDS011;4517;49.020;12.066;2023-02-04T05:29:42;11.03;;;6.70;;
8964;SDS011;4517;49.020;12.066;2023-02-04T05:32:08;9.63;;;7.60;;
8964;SDS011;4517;49.020;12.066;2023-02-04T05:34:33;11.57;;;7.60;;
8964;SDS011;4517;49.020;12.066;2023-02-04T05:36:59;13.23;;;8.43;;
8964;SDS011;4517;49.020;12.066;2023-02-04T05:39:24;12.30;;;9.80;;
8964;SDS011;4517;49.020;12.066;2023-02-04T05:41:50;10.97;;;10.07;;
8964;SDS011;4517;49.020;12.066;2023-02-04T05:44:15;10.17;;;9.57;;
8964;SDS011;4517;49.020;12.066;2023-02-04T05:46:41;10.73;;;9.80;;
8964;SDS011;4517;49.020;12.066;2023-02-04T05:49:06;9.47;;;8.77;;
8964;SDS011;4517;49.020;12.066;2023-02-04T05:51:32;8.90;;;8.30;;
8964;SDS011;4517;49.020;12.066;2023-02-04T05:53:58;11.73;;;8.70;;
8964;SDS011;4517;49.020;12.066;2023-02-04T05:56:23;10.23;;;8.40;;
8964;SDS011;4517;49.020;12.066;2023-02-04T05:58:52;13.73;;;12.40;;
8964;SDS011;4517;49.020;12.066;2023-02-04T06:01:17;13.43;;;12.63;;
8964;SDS011;4517;49.020;12.066;2023-02-04T06:03:43;12.80;;;12.03;;
8964;SDS011;4517;49.020;12.066;2023-02-04T06:06:08;12.63;;;11.77;;
8964;SDS011;4517;49.020;12.066;2023-02-04T06:08:34;12.37;;;11.53;;
8964;SDS011;4517;49.020;12.066;2023-02-04T06:10:59;11.97;;;10.83;;
8964;SDS011;4517;49.020;12.066;2023-02-04T06:13:25;11.90;;;11.30;;
8964;SDS011;4517;49.020;12.066;2023-02-04T06:15:51;12.10;;;11.10;;
8964;SDS011;4517;49.020;12.066;2023-02-04T06:18:17;11.57;;;10.87;;
8964;SDS011;4517;49.020;12.066;2023-02-04T06:20:42;12.57;;;11.50;;
8964;SDS011;4517;49.020;12.066;2023-02-04T06:23:08;12.60;;;11.20;;
8964;SDS011;4517;49.020;12.066;2023-02-04T06:25:33;11.63;;;10.77;;
8964;SDS011;4517;49.020;12.066;2023-02-04T06:27:59;11.57;;;10.67;;
8964;SDS011;4517;49.020;12.066;2023-02-04T06:30:24;11.57;;;10.87;;
8964;SDS011;4517;49.020;12.066;2023-02-04T06:32:50;11.50;;;10.90;;
8964;SDS011;4517;49.020;12.066;2023-02-04T06:35:16;12.70;;;10.73;;
8964;SDS011;4517;49.020;12.066;2023-02-04T06:37:41;11.03;;;10.43;;
8964;SDS011;4517;49.020;12.066;2023-02-04T06:40:07;11.67;;;10.80;;
8964;SDS011;4517;49.020;12.066;2023-02-04T06:42:34;11.53;;;10.80;;
8964;SDS011;4517;49.020;12.066;2023-02-04T06:45:00;11.70;;;10.97;;
8964;SDS011;4517;49.020;12.066;2023-02-04T06:47:25;11.60;;;10.73;;
8964;SDS011;4517;49.020;12.066;2023-02-04T06:49:51;11.17;;;10.47;;
8964;SDS011;4517;49.020;12.066;2023-02-04T06:52:16;10.70;;;10.20;;
8964;SDS011;4517;49.020;12.066;2023-02-04T06:54:42;11.60;;;10.90;;
8964;SDS011;4517;49.020;12.066;2023-02-04T06:57:07;10.70;;;10.10;;
8964;SDS011;4517;49.020;12.066;2023-02-04T06:59:34;11.10;;;10.10;;
8964;SDS011;4517;49.020;12.066;2023-02-04T07:02:00;10.63;;;9.93;;
8964;SDS011;4517;49.020;12.066;2023-02-04T07:04:27;10.17;;;9.67;;
8964;SDS011;4517;49.020;12.066;2023-02-04T07:06:52;9.70;;;9.10;;
8964;SDS011;4517;49.020;12.066;2023-02-04T07:09:18;10.73;;;9.97;;
8964;SDS011;4517;49.020;12.066;2023-02-04T07:11:44;10.40;;;9.83;;
8964;SDS011;4517;49.020;12.066;2023-02-04T07:14:09;9.40;;;8.90;;
8964;SDS011;4517;49.020;12.066;2023-02-04T07:16:35;7.23;;;6.93;;
8964;SDS011;4517;49.020;12.066;2023-02-04T07:19:01;7.90;;;7.30;;
8964;SDS011;4517;49.020;12.066;2023-02-04T07:21:27;7.03;;;6.40;;
8964;SDS011;4517;49.020;12.066;2023-02-04T07:23:53;6.90;;;5.93;;
8964;SDS011;4517;49.020;12.066;2023-02-04T07:26:18;7.33;;;6.70;;
8964;SDS011;4517;49.020;12.066;2023-02-04T07:28:44;6.80;;;6.50;;
8964;SDS011;4517;49.020;12.066;2023-02-04T07:31:09;6.50;;;6.20;;
8964;SDS011;4517;49.020;12.066;2023-02-04T07:33:35;6.50;;;6.10;;
8964;SDS011;4517;49.020;12.066;2023-02-04T07:36:01;7.97;;;7.67;;
8964;SDS011;4517;49.020;12.066;2023-02-04T07:38:26;6.30;;;5.80;;
8964;SDS011;4517;49.020;12.066;2023-02-04T07:40:52;6.13;;;5.93;;
8964;SDS011;4517;49.020;12.066;2023-02-04T07:43:17;7.27;;;6.70;;
8964;SDS011;4517;49.020;12.066;2023-02-04T07:45:43;6.83;;;6.43;;
8964;SDS011;4517;49.020;12.066;2023-02-04T07:48:09;7.20;;;6.57;;
8964;SDS011;4517;49.020;12.066;2023-02-04T07:50:34;10.70;;;7.67;;
8964;SDS011;4517;49.020;12.066;2023-02-04T07:53:00;7.90;;;7.50;;
8964;SDS011;4517;49.020;12.066;2023-02-04T07:55:26;11.33;;;10.70;;
8964;SDS011;4517;49.020;12.066;2023-02-04T07:57:52;7.90;;;7.40;;
8964;SDS011;4517;49.020;12.066;2023-02-04T08:00:19;6.73;;;6.33;;
8964;SDS011;4517;49.020;12.066;2023-02-04T08:02:45;7.63;;;7.23;;
8964;SDS011;4517;49.020;12.066;2023-02-04T08:05:10;7.60;;;7.20;;
8964;SDS011;4517;49.020;12.066;2023-02-04T08:07:36;7.67;;;7.27;;
8964;SDS011;4517;49.020;12.066;2023-02-04T08:10:02;8.07;;;7.47;;
8964;SDS011;4517;49.020;12.066;2023-02-04T08:12:29;8.67;;;8.07;;
8964;SDS011;4517;49.020;12.066;2023-02-04T08:14:55;8.13;;;7.70;;
8964;SDS011;4517;49.020;12.066;2023-02-04T08:17:20;8.03;;;7.63;;
8964;SDS011;4517;49.020;12.066;2023-02-04T08:19:46;9.43;;;8.37;;
8964;SDS011;4517;49.020;12.066;2023-02-04T08:22:11;8.00;;;7.60;;
8964;SDS011;4517;49.020;12.066;2023-02-04T08:24:37;7.03;;;6.63;;
8964;SDS011;4517;49.020;12.066;2023-02-04T08:27:03;8.20;;;7.50;;
8964;SDS011;4517;49.020;12.066;2023-02-04T08:29:28;8.63;;;8.13;;
8964;SDS011;4517;49.020;12.066;2023-02-04T08:31:54;27.17;;;15.27;;
8964;SDS011;4517;49.020;12.066;2023-02-04T08:34:20;16.37;;;9.87;;
8964;SDS011;4517;49.020;12.066;2023-02-04T08:36:45;10.83;;;10.07;;
8964;SDS011;4517;49.020;12.066;2023-02-04T08:39:11;8.77;;;8.30;;
8964;SDS011;4517;49.020;12.066;2023-02-04T08:41:37;7.43;;;7.13;;
8964;SDS011;4517;49.020;12.066;2023-02-04T08:44:04;7.00;;;6.50;;
8964;SDS011;4517;49.020;12.066;2023-02-04T08:46:29;7.67;;;7.27;;
8964;SDS011;4517;49.020;12.066;2023-02-04T08:48:55;6.90;;;6.50;;
8964;SDS011;4517;49.020;12.066;2023-02-04T08:51:21;7.00;;;6.60;;
8964;SDS011;4517;49.020;12.066;2023-02-04T08:53:46;6.90;;;6.60;;
8964;SDS011;4517;49.020;12.066;2023-02-04T08:56:12;8.03;;;6.60;;
8964;SDS011;4517;49.020;12.066;2023-02-04T08:58:42;6.57;;;6.30;;
8964;SDS011;4517;49.020;12.066;2023-02-04T09:01:08;6.70;;;6.40;;
8964;SDS011;4517;49.020;12.066;2023-02-04T09:03:35;6.83;;;6.63;;
8964;SDS011;4517;49.020;12.066;2023-02-04T09:06:05;7.83;;;7.33;;
8964;SDS011;4517;49.020;12.066;2023-02-04T09:08:31;6.50;;;6.20;;
8964;SDS011;4517;49.020;12.066;2023-02-04T09:10:57;6.97;;;6.67;;
8964;SDS011;4517;49.020;12.066;2023-02-04T09:13:22;6.70;;;6.40;;
8964;SDS011;4517;49.020;12.066;2023-02-04T09:15:48;6.60;;;6.40;;
8964;SDS011;4517;49.020;12.066;2023-02-04T09:18:14;6.97;;;6.77;;
8964;SDS011;4517;49.020;12.066;2023-02-04T09:20:42;7.33;;;7.03;;
8964;SDS011;4517;49.020;12.066;2023-02-04T09:23:08;7.60;;;7.20;;
8964;SDS011;4517;49.020;12.066;2023-02-04T09:25:36;7.70;;;7.27;;
8964;SDS011;4517;49.020;12.066;2023-02-04T09:28:06;7.03;;;6.73;;
8964;SDS011;4517;49.020;12.066;2023-02-04T09:30:35;6.20;;;5.90;;
8964;SDS011;4517;49.020;12.066;2023-02-04T09:33:03;5.97;;;5.77;;
8964;SDS011;4517;49.020;12.066;2023-02-04T09:35:29;8.10;;;6.27;;
8964;SDS011;4517;49.020;12.066;2023-02-04T09:37:54;6.80;;;6.40;;
8964;SDS011;4517;49.020;12.066;2023-02-04T09:40:20;7.00;;;6.70;;
8964;SDS011;4517;49.020;12.066;2023-02-04T09:42:47;6.83;;;6.53;;
8964;SDS011;4517;49.020;12.066;2023-02-04T09:45:18;6.60;;;6.40;;
8964;SDS011;4517;49.020;12.066;2023-02-04T09:47:52;6.07;;;5.80;;
8964;SDS011;4517;49.020;12.066;2023-02-04T09:50:21;7.00;;;6.70;;
8964;SDS011;4517;49.020;12.066;2023-02-04T09:52:52;7.37;;;7.07;;
8964;SDS011;4517;49.020;12.066;2023-02-04T09:55:20;7.43;;;7.03;;
8964;SDS011;4517;49.020;12.066;2023-02-04T09:57:49;7.40;;;6.90;;
8964;SDS011;4517;49.020;12.066;2023-02-04T10:00:19;6.90;;;6.60;;
8964;SDS011;4517;49.020;12.066;2023-02-04T10:02:47;7.10;;;6.90;;
8964;SDS011;4517;49.020;12.066;2023-02-04T10:05:14;6.40;;;6.20;;
8964;SDS011;4517;49.020;12.066;2023-02-04T10:07:42;7.17;;;6.53;;
8964;SDS011;4517;49.020;12.066;2023-02-04T10:10:12;7.10;;;6.40;;
8964;SDS011;4517;49.020;12.066;2023-02-04T10:12:44;6.70;;;6.40;;
8964;SDS011;4517;49.020;12.066;2023-02-04T10:15:18;7.60;;;7.30;;
8964;SDS011;4517;49.020;12.066;2023-02-04T10:17:47;7.17;;;6.77;;
8964;SDS011;4517;49.020;12.066;2023-02-04T10:23:00;7.77;;;7.43;;
8964;SDS011;4517;49.020;12.066;2023-02-04T10:27:58;6.67;;;6.47;;
8964;SDS011;4517;49.020;12.066;2023-02-04T10:30:46;6.23;;;6.03;;
8964;SDS011;4517;49.020;12.066;2023-02-04T10:33:15;6.77;;;6.57;;
8964;SDS011;4517;49.020;12.066;2023-02-04T10:35:49;7.03;;;6.73;;
8964;SDS011;4517;49.020;12.066;2023-02-04T10:38:17;7.00;;;6.50;;
8964;SDS011;4517;49.020;12.066;2023-02-04T10:40:43;7.73;;;7.30;;
8964;SDS011;4517;49.020;12.066;2023-02-04T10:43:12;6.63;;;6.33;;
8964;SDS011;4517;49.020;12.066;2023-02-04T10:45:45;6.93;;;6.63;;
8964;SDS011;4517;49.020;12.066;2023-02-04T10:48:16;6.87;;;6.67;;
8964;SDS011;4517;49.020;12.066;2023-02-04T10:50:43;6.47;;;6.13;;
8964;SDS011;4517;49.020;12.066;2023-02-04T10:53:10;6.87;;;6.57;;
8964;SDS011;4517;49.020;12.066;2023-02-04T10:55:58;6.60;;;6.30;;
8964;SDS011;4517;49.020;12.066;2023-02-04T10:58:27;6.87;;;6.57;;
8964;SDS011;4517;49.020;12.066;2023-02-04T11:00:54;6.80;;;6.30;;
8964;SDS011;4517;49.020;12.066;2023-02-04T11:03:23;7.10;;;6.70;;
8964;SDS011;4517;49.020;12.066;2023-02-04T11:05:50;7.13;;;6.80;;
8964;SDS011;4517;49.020;12.066;2023-02-04T11:11:04;8.03;;;7.70;;
8964;SDS011;4517;49.020;12.066;2023-02-04T11:16:24;7.00;;;6.70;;
8964;SDS011;4517;49.020;12.066;2023-02-04T11:18:53;7.90;;;7.60;;
8964;SDS011;4517;49.020;12.066;2023-02-04T11:26:42;8.20;;;7.80;;
8964;SDS011;4517;49.020;12.066;2023-02-04T11:37:35;7.40;;;7.10;;
8964;SDS011;4517;49.020;12.066;2023-02-04T11:42:43;7.63;;;7.33;;
8964;SDS011;4517;49.020;12.066;2023-02-04T11:45:13;7.90;;;7.60;;
8964;SDS011;4517;49.020;12.066;2023-02-04T11:47:41;6.63;;;6.33;;
8964;SDS011;4517;49.020;12.066;2023-02-04T11:50:14;7.17;;;6.87;;
8964;SDS011;4517;49.020;12.066;2023-02-04T11:52:44;6.77;;;6.47;;
8964;SDS011;4517;49.020;12.066;2023-02-04T11:55:09;7.37;;;7.07;;
8964;SDS011;4517;49.020;12.066;2023-02-04T11:57:39;7.00;;;6.70;;
8964;SDS011;4517;49.020;12.066;2023-02-04T12:00:14;7.93;;;7.43;;
8964;SDS011;4517;49.020;12.066;2023-02-04T12:02:43;6.90;;;6.60;;
8964;SDS011;4517;49.020;12.066;2023-02-04T12:05:17;8.70;;;8.07;;
8964;SDS011;4517;49.020;12.066;2023-02-04T12:07:44;6.67;;;6.47;;
8964;SDS011;4517;49.020;12.066;2023-02-04T12:10:12;7.47;;;6.97;;
8964;SDS011;4517;49.020;12.066;2023-02-04T12:12:54;6.97;;;6.67;;
8964;SDS011;4517;49.020;12.066;2023-02-04T12:15:31;7.20;;;6.90;;
8964;SDS011;4517;49.020;12.066;2023-02-04T12:18:05;7.10;;;6.70;;
8964;SDS011;4517;49.020;12.066;2023-02-04T12:20:32;7.50;;;7.13;;
8964;SDS011;4517;49.020;12.066;2023-02-04T12:22:59;7.83;;;7.43;;
8964;SDS011;4517;49.020;12.066;2023-02-04T12:25:24;7.10;;;6.80;;
8964;SDS011;4517;49.020;12.066;2023-02-04T12:27:51;7.07;;;6.87;;
8964;SDS011;4517;49.020;12.066;2023-02-04T12:30:19;7.80;;;7.40;;
8964;SDS011;4517;49.020;12.066;2023-02-04T12:32:46;7.00;;;6.70;;
8964;SDS011;4517;49.020;12.066;2023-02-04T12:35:11;7.03;;;6.73;;
8964;SDS011;4517;49.020;12.066;2023-02-04T12:37:37;8.27;;;7.97;;
8964;SDS011;4517;49.020;12.066;2023-02-04T12:40:02;7.30;;;7.00;;
8964;SDS011;4517;49.020;12.066;2023-02-04T12:42:28;7.53;;;7.23;;
8964;SDS011;4517;49.020;12.066;2023-02-04T12:44:54;7.53;;;7.07;;
8964;SDS011;4517;49.020;12.066;2023-02-04T12:47:19;8.50;;;8.20;;
8964;SDS011;4517;49.020;12.066;2023-02-04T12:49:45;8.37;;;7.70;;
8964;SDS011;4517;49.020;12.066;2023-02-04T12:52:10;8.13;;;7.63;;
8964;SDS011;4517;49.020;12.066;2023-02-04T12:54:36;7.60;;;7.30;;
8964;SDS011;4517;49.020;12.066;2023-02-04T12:57:02;6.40;;;6.20;;
8964;SDS011;4517;49.020;12.066;2023-02-04T12:59:27;7.60;;;7.30;;
8964;SDS011;4517;49.020;12.066;2023-02-04T13:01:55;10.83;;;9.73;;
8964;SDS011;4517;49.020;12.066;2023-02-04T13:04:21;7.00;;;6.73;;
8964;SDS011;4517;49.020;12.066;2023-02-04T13:06:47;7.43;;;7.03;;
8964;SDS011;4517;49.020;12.066;2023-02-04T13:09:12;6.60;;;6.20;;
8964;SDS011;4517;49.020;12.066;2023-02-04T13:11:38;6.90;;;6.60;;
8964;SDS011;4517;49.020;12.066;2023-02-04T13:14:03;7.23;;;6.83;;
8964;SDS011;4517;49.020;12.066;2023-02-04T13:16:29;7.83;;;7.43;;
8964;SDS011;4517;49.020;12.066;2023-02-04T13:18:54;7.67;;;7.27;;
8964;SDS011;4517;49.020;12.066;2023-02-04T13:21:20;7.60;;;7.30;;
8964;SDS011;4517;49.020;12.066;2023-02-04T13:23:47;7.33;;;7.03;;
8964;SDS011;4517;49.020;12.066;2023-02-04T13:26:12;8.03;;;7.60;;
8964;SDS011;4517;49.020;12.066;2023-02-04T13:28:38;8.37;;;7.97;;
8964;SDS011;4517;49.020;12.066;2023-02-04T13:31:03;7.57;;;7.27;;
8964;SDS011;4517;49.020;12.066;2023-02-04T13:33:29;6.87;;;6.67;;
8964;SDS011;4517;49.020;12.066;2023-02-04T13:35:55;7.27;;;6.97;;
8964;SDS011;4517;49.020;12.066;2023-02-04T13:38:21;6.73;;;6.50;;
8964;SDS011;4517;49.020;12.066;2023-02-04T13:40:47;8.00;;;7.70;;
8964;SDS011;4517;49.020;12.066;2023-02-04T13:43:12;7.50;;;7.20;;
8964;SDS011;4517;49.020;12.066;2023-02-04T13:45:38;7.00;;;6.70;;
8964;SDS011;4517;49.020;12.066;2023-02-04T13:48:04;7.30;;;6.87;;
8964;SDS011;4517;49.020;12.066;2023-02-04T13:50:30;7.60;;;7.30;;
8964;SDS011;4517;49.020;12.066;2023-02-04T13:52:55;7.63;;;7.30;;
8964;SDS011;4517;49.020;12.066;2023-02-04T13:55:21;7.87;;;7.47;;
8964;SDS011;4517;49.020;12.066;2023-02-04T13:57:47;8.57;;;8.17;;
8964;SDS011;4517;49.020;12.066;2023-02-04T14:00:12;7.70;;;7.40;;
8964;SDS011;4517;49.020;12.066;2023-02-04T14:02:38;7.67;;;7.17;;
8964;SDS011;4517;49.020;12.066;2023-02-04T14:05:04;8.10;;;7.70;;
8964;SDS011;4517;49.020;12.066;2023-02-04T14:07:30;8.23;;;7.83;;
8964;SDS011;4517;49.020;12.066;2023-02-04T14:09:57;7.50;;;7.20;;
8964;SDS011;4517;49.020;12.066;2023-02-04T14:12:22;9.97;;;9.30;;
8964;SDS011;4517;49.020;12.066;2023-02-04T14:14:48;7.77;;;7.47;;
8964;SDS011;4517;49.020;12.066;2023-02-04T14:17:14;6.43;;;6.23;;
8964;SDS011;4517;49.020;12.066;2023-02-04T14:19:39;7.07;;;6.77;;
8964;SDS011;4517;49.020;12.066;2023-02-04T14:22:04;8.00;;;7.30;;
8964;SDS011;4517;49.020;12.066;2023-02-04T14:24:31;7.27;;;6.97;;
8964;SDS011;4517;49.020;12.066;2023-02-04T14:26:57;6.87;;;6.57;;
8964;SDS011;4517;49.020;12.066;2023-02-04T14:29:22;7.20;;;7.00;;
8964;SDS011;4517;49.020;12.066;2023-02-04T14:31:48;7.30;;;6.90;;
8964;SDS011;4517;49.020;12.066;2023-02-04T14:34:14;7.53;;;7.23;;
8964;SDS011;4517;49.020;12.066;2023-02-04T14:36:39;7.50;;;7.23;;
8964;SDS011;4517;49.020;12.066;2023-02-04T14:39:05;7.60;;;7.30;;
8964;SDS011;4517;49.020;12.066;2023-02-04T14:41:30;7.07;;;6.77;;
8964;SDS011;4517;49.020;12.066;2023-02-04T14:43:56;7.20;;;6.90;;
8964;SDS011;4517;49.020;12.066;2023-02-04T14:46:21;6.80;;;6.50;;
8964;SDS011;4517;49.020;12.066;2023-02-04T14:48:47;7.23;;;6.93;;
8964;SDS011;4517;49.020;12.066;2023-02-04T14:51:15;7.70;;;7.40;;
8964;SDS011;4517;49.020;12.066;2023-02-04T14:53:41;7.47;;;7.07;;
8964;SDS011;4517;49.020;12.066;2023-02-04T14:56:07;7.53;;;7.23;;
8964;SDS011;4517;49.020;12.066;2023-02-04T14:58:33;7.47;;;7.17;;
8964;SDS011;4517;49.020;12.066;2023-02-04T15:00:58;7.60;;;7.30;;
8964;SDS011;4517;49.020;12.066;2023-02-04T15:03:24;7.30;;;7.00;;
8964;SDS011;4517;49.020;12.066;2023-02-04T15:05:49;7.67;;;7.17;;
8964;SDS011;4517;49.020;12.066;2023-02-04T15:08:15;6.87;;;6.57;;
8964;SDS011;4517;49.020;12.066;2023-02-04T15:10:40;7.17;;;6.77;;
8964;SDS011;4517;49.020;12.066;2023-02-04T15:13:06;8.03;;;7.30;;
8964;SDS011;4517;49.020;12.066;2023-02-04T15:15:31;7.07;;;6.77;;
8964;SDS011;4517;49.020;12.066;2023-02-04T15:17:57;6.63;;;6.43;;
8964;SDS011;4517;49.020;12.066;2023-02-04T15:20:22;6.90;;;6.63;;
8964;SDS011;4517;49.020;12.066;2023-02-04T15:22:49;7.40;;;7.10;;